Time;durP1;ratioP1;P1;durP2;ratioP2;P2;SDS_P1;SDS_P2;PMS_P1;PMS_P2;Temp;Humidity;BMP_temperature;BMP_pressure;BME280_temperature;BME280_humidity;BME280_pressure;Samples;Min_cycle;Max_cycle;Signal;HPM_P1;HPM_P2
2022/07/19 00:02:09;;;;;;;7.70;7.03;;;22.10;84.90;;;;;;5055081;28;20174;-70
2022/07/19 00:04:35;;;;;;;7.73;7.20;;;22.10;85.60;;;;;;5035544;28;20404;-70
2022/07/19 00:07:02;;;;;;;8.03;7.43;;;22.00;85.70;;;;;;5054800;28;20435;-70
2022/07/19 00:09:30;;;;;;;9.03;6.93;;;22.00;85.60;;;;;;5054130;28;20415;-70
2022/07/19 00:11:57;;;;;;;7.13;6.60;;;22.00;86.20;;;;;;5054867;28;20495;-70
2022/07/19 00:14:23;;;;;;;7.10;6.50;;;21.90;86.60;;;;;;5052848;28;20400;-70
2022/07/19 00:16:49;;;;;;;7.50;6.90;;;21.90;87.20;;;;;;5052494;28;20481;-70
2022/07/19 00:19:15;;;;;;;7.43;6.73;;;21.90;88.20;;;;;;5053789;28;20524;-70
2022/07/19 00:21:40;;;;;;;7.30;6.67;;;21.90;88.30;;;;;;5067746;28;20941;-70
2022/07/19 00:24:06;;;;;;;7.53;6.90;;;21.80;88.20;;;;;;5074030;28;20597;-70
2022/07/19 00:26:32;;;;;;;10.63;7.20;;;21.80;88.30;;;;;;5074727;28;20525;-70
2022/07/19 00:29:00;;;;;;;7.00;6.50;;;21.80;88.80;;;;;;5073366;28;20264;-70
2022/07/19 00:31:26;;;;;;;7.10;6.60;;;21.80;89.00;;;;;;5074316;28;20177;-71
2022/07/19 00:33:52;;;;;;;6.70;6.20;;;21.70;89.60;;;;;;5074824;28;20454;-70
2022/07/19 00:36:19;;;;;;;7.30;6.70;;;21.70;89.90;;;;;;5072257;28;20429;-70
2022/07/19 00:38:45;;;;;;;9.70;6.63;;;21.70;90.00;;;;;;5074780;28;20412;-71
2022/07/19 00:41:12;;;;;;;7.23;6.73;;;21.70;89.80;;;;;;5072811;28;20431;-70
2022/07/19 00:43:42;;;;;;;7.07;6.57;;;21.70;90.10;;;;;;5071021;28;20439;-70
2022/07/19 00:46:15;;;;;;;6.63;6.13;;;21.60;90.00;;;;;;5054638;28;20404;-70
2022/07/19 00:48:42;;;;;;;7.20;6.60;;;21.60;90.20;;;;;;5054771;28;20795;-70
2022/07/19 00:51:12;;;;;;;7.00;6.50;;;21.60;90.00;;;;;;5061179;28;20451;-71
2022/07/19 00:53:39;;;;;;;7.20;6.60;;;21.60;89.80;;;;;;5074509;28;20942;-70
2022/07/19 00:56:08;;;;;;;8.23;7.53;;;21.50;89.70;;;;;;5074444;28;20494;-70
2022/07/19 00:58:35;;;;;;;7.87;7.23;;;21.50;90.10;;;;;;5073811;28;20404;-70
2022/07/19 01:01:02;;;;;;;8.30;7.70;;;21.50;90.10;;;;;;5074446;28;20403;-70
2022/07/19 01:03:28;;;;;;;8.17;7.57;;;21.50;90.00;;;;;;5073701;28;20411;-70
2022/07/19 01:05:54;;;;;;;9.10;8.30;;;21.40;90.30;;;;;;5072016;28;20416;-70
2022/07/19 01:08:20;;;;;;;8.03;7.43;;;21.40;90.30;;;;;;5055264;28;20235;-70
2022/07/19 01:10:46;;;;;;;7.53;6.77;;;21.30;90.30;;;;;;5069515;28;20196;-70
2022/07/19 01:13:15;;;;;;;7.33;6.83;;;21.40;90.50;;;;;;5053608;28;20244;-70
2022/07/19 01:15:42;;;;;;;7.27;6.67;;;21.40;90.40;;;;;;5047908;28;20459;-70
2022/07/19 01:18:08;;;;;;;7.50;6.80;;;21.30;90.60;;;;;;5073697;28;20458;-70
2022/07/19 01:20:34;;;;;;;7.90;6.03;;;21.30;90.30;;;;;;5055474;28;20833;-71
2022/07/19 01:23:01;;;;;;;7.40;6.90;;;21.30;90.50;;;;;;5053629;28;20427;-70
2022/07/19 01:25:32;;;;;;;7.10;6.60;;;21.30;90.90;;;;;;5057985;28;20426;-70
2022/07/19 01:27:58;;;;;;;6.87;6.23;;;21.20;90.60;;;;;;5053140;28;20525;-70
2022/07/19 01:30:26;;;;;;;6.27;5.83;;;21.20;90.30;;;;;;5067900;28;20420;-70
2022/07/19 01:32:53;;;;;;;5.87;5.40;;;21.10;90.50;;;;;;5053049;28;20448;-71
2022/07/19 01:35:19;;;;;;;8.70;6.30;;;21.20;91.10;;;;;;5052647;28;20443;-71
2022/07/19 01:37:45;;;;;;;6.63;6.07;;;21.10;90.80;;;;;;5068882;28;20427;-71
2022/07/19 01:40:13;;;;;;;6.90;6.40;;;21.10;90.70;;;;;;5072169;28;20249;-71
2022/07/19 01:42:39;;;;;;;6.80;6.30;;;21.10;90.90;;;;;;5072413;28;20500;-70
2022/07/19 01:45:07;;;;;;;6.67;6.17;;;21.10;91.20;;;;;;5072074;28;20898;-70
2022/07/19 01:47:33;;;;;;;6.00;5.50;;;21.10;91.10;;;;;;5071193;28;20891;-71
2022/07/19 01:49:59;;;;;;;7.50;6.90;;;21.00;91.20;;;;;;5072678;28;20415;-71
2022/07/19 01:52:25;;;;;;;6.90;6.40;;;21.00;91.40;;;;;;5071159;28;20984;-71
2022/07/19 01:54:50;;;;;;;12.80;7.17;;;21.00;91.60;;;;;;5072919;28;20204;-71
2022/07/19 01:57:16;;;;;;;7.53;6.80;;;20.90;91.40;;;;;;5072638;28;20264;-71
2022/07/19 01:59:42;;;;;;;6.50;5.90;;;20.90;91.20;;;;;;5072414;28;20180;-70
2022/07/19 02:02:08;;;;;;;7.47;6.60;;;20.90;91.50;;;;;;5072840;28;20184;-70
2022/07/19 02:04:34;;;;;;;6.70;6.10;;;20.90;91.10;;;;;;5072027;28;20396;-71
2022/07/19 02:07:00;;;;;;;7.20;6.00;;;20.90;91.40;;;;;;5070741;28;20928;-71
2022/07/19 02:09:26;;;;;;;7.33;6.83;;;20.80;91.40;;;;;;5071901;28;20417;-71
2022/07/19 02:11:55;;;;;;;6.30;5.67;;;20.80;91.50;;;;;;5072678;28;20404;-70
2022/07/19 02:14:21;;;;;;;7.03;6.43;;;20.80;91.40;;;;;;5071911;28;20209;-70
2022/07/19 02:16:47;;;;;;;6.73;6.23;;;20.80;91.30;;;;;;5071329;28;20427;-71
2022/07/19 02:19:12;;;;;;;6.87;6.30;;;20.80;91.00;;;;;;5067928;28;20435;-70
2022/07/19 02:21:39;;;;;;;6.83;6.20;;;20.80;91.10;;;;;;5066468;28;21081;-70
2022/07/19 02:24:06;;;;;;;6.73;6.17;;;20.80;90.70;;;;;;5042072;28;20544;-70
2022/07/19 02:26:32;;;;;;;6.07;5.53;;;20.70;91.00;;;;;;5053482;28;20417;-70
2022/07/19 02:28:58;;;;;;;6.73;5.73;;;20.70;91.10;;;;;;5070993;28;20469;-70
2022/07/19 02:31:24;;;;;;;6.30;5.80;;;20.70;91.20;;;;;;5071606;28;20907;-71
2022/07/19 02:33:49;;;;;;;7.27;6.33;;;20.70;91.20;;;;;;5072437;28;20215;-70
2022/07/19 02:36:17;;;;;;;7.80;7.17;;;20.60;91.00;;;;;;5049231;28;20292;-71
2022/07/19 02:38:43;;;;;;;7.67;6.87;;;20.60;91.30;;;;;;5051750;28;20522;-71
2022/07/19 02:41:09;;;;;;;7.80;7.03;;;20.60;91.80;;;;;;5052217;28;20405;-71
2022/07/19 02:43:35;;;;;;;7.40;6.80;;;20.60;91.90;;;;;;5051445;28;20432;-71
2022/07/19 02:46:01;;;;;;;7.60;7.10;;;20.60;91.90;;;;;;5068426;28;20317;-70
2022/07/19 02:48:27;;;;;;;7.57;6.93;;;20.60;92.30;;;;;;5019305;28;20185;-71
2022/07/19 02:50:53;;;;;;;10.93;8.00;;;20.60;92.40;;;;;;5069219;28;20181;-71
2022/07/19 02:53:18;;;;;;;7.40;6.80;;;20.60;92.60;;;;;;5072098;28;20211;-70
2022/07/19 02:55:47;;;;;;;7.70;7.10;;;20.60;92.70;;;;;;5054464;28;20258;-71
2022/07/19 02:58:13;;;;;;;7.50;6.90;;;20.50;92.90;;;;;;5070469;28;20431;-70
2022/07/19 03:00:38;;;;;;;7.23;6.60;;;20.50;93.00;;;;;;5019281;28;20246;-70
2022/07/19 03:05:49;;;;;;;7.43;6.80;;;20.50;93.10;;;;;;5052105;28;20637;-73
2022/07/19 03:08:15;;;;;;;6.83;6.43;;;20.40;93.30;;;;;;5069244;28;20517;-72
2022/07/19 03:10:41;;;;;;;7.53;6.90;;;20.40;93.60;;;;;;5071727;28;20422;-73
2022/07/19 03:13:08;;;;;;;7.00;6.50;;;20.40;93.80;;;;;;5072492;28;20459;-72
2022/07/19 03:15:37;;;;;;;6.93;6.43;;;20.40;93.70;;;;;;5070228;28;20181;-72
2022/07/19 03:18:03;;;;;;;7.43;6.83;;;20.40;93.80;;;;;;5037761;28;20797;-72
2022/07/19 03:20:29;;;;;;;7.37;6.87;;;20.30;93.60;;;;;;5047911;28;20563;-72
2022/07/19 03:22:57;;;;;;;8.03;7.30;;;20.30;93.60;;;;;;5050395;28;20539;-72
2022/07/19 03:25:23;;;;;;;7.53;6.90;;;20.30;93.70;;;;;;5051575;28;20205;-73
2022/07/19 03:27:49;;;;;;;7.83;7.10;;;20.20;93.80;;;;;;5052099;28;20412;-72
2022/07/19 03:30:15;;;;;;;8.03;7.37;;;20.20;94.10;;;;;;5036279;28;20463;-73
2022/07/19 03:32:41;;;;;;;7.83;7.20;;;20.20;94.10;;;;;;5054556;28;20515;-73
2022/07/19 03:35:07;;;;;;;7.40;6.87;;;20.30;94.10;;;;;;5056021;28;20485;-73
2022/07/19 03:37:33;;;;;;;7.57;7.07;;;20.20;94.30;;;;;;5055677;28;20530;-72
2022/07/19 03:39:58;;;;;;;8.40;7.70;;;20.20;94.30;;;;;;5053880;28;20434;-72
2022/07/19 03:42:24;;;;;;;7.63;7.00;;;20.20;94.70;;;;;;5055024;28;20185;-73
2022/07/19 03:44:50;;;;;;;8.30;7.60;;;20.20;94.40;;;;;;5055466;28;20174;-72
2022/07/19 03:47:16;;;;;;;9.13;8.33;;;20.20;94.30;;;;;;5055335;28;20173;-72
2022/07/19 03:49:41;;;;;;;9.33;8.53;;;20.20;94.10;;;;;;5036542;28;20500;-72
2022/07/19 03:52:07;;;;;;;8.37;7.60;;;20.10;94.10;;;;;;5054847;28;20182;-72
2022/07/19 03:54:33;;;;;;;8.53;7.87;;;20.10;94.40;;;;;;5055078;28;20181;-72
2022/07/19 03:56:59;;;;;;;11.27;7.80;;;20.20;94.60;;;;;;5054436;28;20189;-72
2022/07/19 03:59:24;;;;;;;9.87;8.97;;;20.20;94.40;;;;;;5054049;28;20206;-73
2022/07/19 04:01:51;;;;;;;7.70;7.00;;;20.10;94.30;;;;;;5055516;28;20244;-72
2022/07/19 04:04:17;;;;;;;8.37;7.67;;;20.10;94.40;;;;;;5054336;28;20428;-72
2022/07/19 04:06:43;;;;;;;8.20;7.60;;;20.10;94.80;;;;;;5054831;28;20516;-73
2022/07/19 04:09:09;;;;;;;7.33;6.80;;;20.10;94.90;;;;;;5054027;28;20511;-73
2022/07/19 04:11:35;;;;;;;8.10;7.50;;;20.10;94.90;;;;;;5034762;28;20746;-73
2022/07/19 04:14:00;;;;;;;7.97;7.33;;;20.10;95.00;;;;;;5035234;28;20202;-73
2022/07/19 04:16:29;;;;;;;8.07;7.43;;;20.10;95.00;;;;;;5034713;28;20209;-73
2022/07/19 04:18:57;;;;;;;10.67;6.97;;;20.20;95.00;;;;;;5035120;28;20175;-73
2022/07/19 04:21:23;;;;;;;9.30;8.77;;;20.10;94.80;;;;;;5035189;28;20461;-72
2022/07/19 04:23:49;;;;;;;8.00;7.20;;;20.10;94.90;;;;;;5039322;28;20213;-73
2022/07/19 04:26:15;;;;;;;8.80;8.20;;;20.10;94.90;;;;;;5000603;28;20464;-73
2022/07/19 04:28:41;;;;;;;7.57;7.07;;;20.20;94.70;;;;;;5046962;28;20178;-70
2022/07/19 04:31:09;;;;;;;7.57;6.57;;;20.20;94.70;;;;;;5049986;28;20192;-70
2022/07/19 04:33:35;;;;;;;8.67;7.87;;;20.20;94.80;;;;;;5033402;28;20697;-70
2022/07/19 04:36:00;;;;;;;7.30;6.63;;;20.20;94.80;;;;;;5052823;28;20470;-70
2022/07/19 04:38:26;;;;;;;8.30;7.50;;;20.10;94.60;;;;;;5052165;28;20190;-71
2022/07/19 04:40:52;;;;;;;7.83;7.27;;;20.10;94.70;;;;;;5054280;28;20174;-71
2022/07/19 04:43:18;;;;;;;8.57;7.87;;;20.10;95.00;;;;;;5054509;28;20260;-73
2022/07/19 04:45:46;;;;;;;9.40;8.60;;;20.10;95.00;;;;;;5051256;28;20189;-74
2022/07/19 04:48:13;;;;;;;8.60;7.80;;;20.20;95.80;;;;;;5036310;28;20433;-73
2022/07/19 04:50:40;;;;;;;10.13;8.80;;;20.40;95.80;;;;;;5051830;28;20428;-73
2022/07/19 04:53:05;;;;;;;12.87;9.67;;;20.60;95.50;;;;;;5054520;28;20460;-73
2022/07/19 04:55:32;;;;;;;10.27;9.30;;;20.70;94.70;;;;;;5050414;28;20513;-74
2022/07/19 04:57:58;;;;;;;8.57;7.77;;;20.90;94.20;;;;;;5052557;28;20427;-73
2022/07/19 05:00:23;;;;;;;10.73;8.30;;;21.10;93.90;;;;;;5043837;28;20432;-73
2022/07/19 05:02:49;;;;;;;8.43;7.53;;;21.20;93.80;;;;;;5052279;28;20229;-73
2022/07/19 05:05:15;;;;;;;9.57;8.77;;;21.40;93.70;;;;;;5054146;28;20182;-73
2022/07/19 05:07:41;;;;;;;8.70;8.00;;;21.50;93.20;;;;;;5053390;28;20182;-74
2022/07/19 05:10:08;;;;;;;9.83;8.90;;;21.60;93.20;;;;;;5054027;28;20169;-74
2022/07/19 05:12:34;;;;;;;8.60;7.90;;;21.60;92.80;;;;;;5033960;28;20482;-73
2022/07/19 05:15:00;;;;;;;10.10;9.37;;;21.70;92.80;;;;;;5051607;28;20433;-68
2022/07/19 05:17:25;;;;;;;8.50;7.70;;;21.70;92.80;;;;;;5051312;28;20188;-70
2022/07/19 05:19:51;;;;;;;7.93;7.37;;;21.70;92.30;;;;;;5053268;28;20471;-71
2022/07/19 05:22:17;;;;;;;8.90;8.20;;;21.60;92.00;;;;;;5053006;28;20236;-71
2022/07/19 05:24:43;;;;;;;7.30;6.70;;;21.60;92.20;;;;;;5052132;28;20440;-72
2022/07/19 05:27:09;;;;;;;9.50;8.60;;;21.50;92.40;;;;;;5051357;28;20629;-72
2022/07/19 05:29:35;;;;;;;7.20;6.60;;;21.50;93.10;;;;;;5037033;28;20596;-72
2022/07/19 05:32:00;;;;;;;8.20;7.50;;;21.40;93.70;;;;;;5052283;28;20189;-70
2022/07/19 05:34:26;;;;;;;13.73;12.43;;;21.30;94.00;;;;;;5052257;28;20205;-68
2022/07/19 05:36:52;;;;;;;10.00;9.00;;;21.30;93.90;;;;;;5052195;28;20182;-68
2022/07/19 05:39:17;;;;;;;10.53;8.00;;;21.20;93.70;;;;;;5050851;28;20185;-67
2022/07/19 05:41:44;;;;;;;7.40;6.80;;;21.20;94.00;;;;;;5051758;28;20185;-68
2022/07/19 05:44:10;;;;;;;9.47;7.00;;;21.20;93.50;;;;;;5053669;28;20174;-68
2022/07/19 05:46:40;;;;;;;9.60;8.83;;;21.20;93.60;;;;;;5050097;28;20455;-69
2022/07/19 05:49:08;;;;;;;9.33;7.80;;;21.10;93.30;;;;;;5053577;28;20173;-68
2022/07/19 05:51:35;;;;;;;8.87;8.10;;;21.20;92.80;;;;;;5052170;28;20434;-68
2022/07/19 05:54:03;;;;;;;7.97;7.30;;;21.20;92.50;;;;;;5052082;28;20815;-68
2022/07/19 05:56:32;;;;;;;7.30;6.80;;;21.20;92.50;;;;;;5050801;28;20428;-68
2022/07/19 05:58:58;;;;;;;7.30;6.67;;;21.20;92.60;;;;;;4991515;28;20424;-69
2022/07/19 06:01:24;;;;;;;7.27;6.67;;;21.20;92.70;;;;;;5052113;28;20850;-71
2022/07/19 06:03:53;;;;;;;15.00;12.53;;;21.30;92.80;;;;;;5030309;28;20444;-71
2022/07/19 06:06:20;;;;;;;7.83;7.13;;;21.30;92.60;;;;;;5051419;28;20424;-71
2022/07/19 06:08:46;;;;;;;7.73;7.03;;;21.30;92.50;;;;;;5032845;28;20436;-67
2022/07/19 06:11:13;;;;;;;8.20;6.70;;;21.30;92.30;;;;;;5052173;28;20432;-68
2022/07/19 06:13:40;;;;;;;8.23;6.67;;;21.30;92.20;;;;;;5051250;28;20564;-67
2022/07/19 06:16:08;;;;;;;7.87;6.47;;;21.40;92.00;;;;;;5035037;28;20931;-67
2022/07/19 06:18:38;;;;;;;8.93;8.10;;;21.50;92.00;;;;;;5048032;28;20443;-67
2022/07/19 06:21:12;;;;;;;7.43;6.83;;;21.50;92.10;;;;;;5048580;28;20567;-67
2022/07/19 06:23:39;;;;;;;7.33;6.73;;;21.60;92.00;;;;;;5072381;28;20442;-67
2022/07/19 06:26:06;;;;;;;10.57;9.57;;;21.70;91.90;;;;;;5071906;28;20441;-67
2022/07/19 06:28:32;;;;;;;9.00;8.10;;;21.80;92.00;;;;;;5071950;28;20480;-68
2022/07/19 06:30:58;;;;;;;7.20;6.10;;;21.80;91.90;;;;;;5075240;28;22231;-66
2022/07/19 06:33:24;;;;;;;7.43;6.33;;;21.90;91.50;;;;;;5072714;28;20208;-65
2022/07/19 06:35:49;;;;;;;6.70;5.90;;;21.90;91.50;;;;;;5072148;28;20173;-66
2022/07/19 06:38:16;;;;;;;6.70;6.10;;;22.00;91.90;;;;;;5072279;28;20177;-67
2022/07/19 06:40:42;;;;;;;9.33;6.07;;;22.10;91.60;;;;;;5058789;28;20653;-66
2022/07/19 06:43:08;;;;;;;7.03;6.43;;;22.20;91.90;;;;;;5070422;28;20423;-66
2022/07/19 06:45:34;;;;;;;9.73;6.40;;;22.20;91.30;;;;;;5069516;28;20427;-66
2022/07/19 06:48:20;;;;;;;6.70;6.00;;;22.30;91.30;;;;;;5049346;28;20533;-66
2022/07/19 06:50:45;;;;;;;7.87;6.60;;;22.40;90.90;;;;;;5048515;28;20944;-66
2022/07/19 06:53:11;;;;;;;6.80;6.00;;;22.50;90.10;;;;;;5048413;28;20223;-66
2022/07/19 06:55:37;;;;;;;7.43;5.70;;;22.60;90.40;;;;;;5030798;28;20174;-66
2022/07/19 06:58:02;;;;;;;9.03;6.93;;;22.70;90.80;;;;;;5049077;28;20193;-66
2022/07/19 07:00:28;;;;;;;8.10;7.00;;;22.80;90.60;;;;;;5050064;28;20181;-66
2022/07/19 07:02:54;;;;;;;8.63;7.10;;;22.90;90.90;;;;;;5048268;28;20197;-67
2022/07/19 07:05:20;;;;;;;6.30;5.80;;;23.00;90.60;;;;;;5049290;28;20178;-66
2022/07/19 07:07:47;;;;;;;7.13;5.97;;;23.10;89.70;;;;;;5051983;28;20324;-66
2022/07/19 07:10:13;;;;;;;8.97;8.17;;;23.20;89.90;;;;;;5054214;28;20174;-66
2022/07/19 07:12:38;;;;;;;7.60;7.00;;;23.30;89.60;;;;;;5036426;28;21002;-66
2022/07/19 07:15:06;;;;;;;7.17;6.57;;;23.50;89.70;;;;;;5053959;28;20279;-66
2022/07/19 07:17:32;;;;;;;7.40;5.57;;;23.60;86.10;;;;;;5054052;28;20173;-66
2022/07/19 07:19:57;;;;;;;8.10;7.40;;;23.80;87.10;;;;;;5068584;28;20442;-66
2022/07/19 07:22:23;;;;;;;7.23;6.00;;;23.90;87.00;;;;;;5057549;28;20621;-66
2022/07/19 07:24:49;;;;;;;9.87;7.07;;;24.10;86.50;;;;;;5055243;28;20189;-66
2022/07/19 07:27:17;;;;;;;7.00;6.47;;;24.20;87.30;;;;;;5054425;28;20265;-66
2022/07/19 07:29:43;;;;;;;9.13;8.33;;;24.40;86.70;;;;;;5050796;28;20181;-66
2022/07/19 07:32:09;;;;;;;7.73;7.23;;;24.60;86.10;;;;;;5054905;28;20423;-66
2022/07/19 07:34:34;;;;;;;6.80;6.17;;;24.70;84.50;;;;;;5064045;28;20236;-66
2022/07/19 07:37:00;;;;;;;6.80;5.80;;;24.90;80.50;;;;;;5075026;28;20264;-66
2022/07/19 07:39:26;;;;;;;6.33;5.70;;;25.00;78.60;;;;;;5075575;28;20181;-66
2022/07/19 07:41:51;;;;;;;6.70;6.10;;;25.10;77.90;;;;;;5075008;28;20181;-66
2022/07/19 07:44:17;;;;;;;7.00;6.10;;;25.30;78.00;;;;;;5075270;28;20666;-66
2022/07/19 07:46:43;;;;;;;6.83;6.20;;;25.50;78.10;;;;;;5075256;28;20172;-66
2022/07/19 07:49:09;;;;;;;8.33;6.10;;;25.60;76.30;;;;;;5075948;28;20175;-66
2022/07/19 07:51:34;;;;;;;7.00;6.50;;;25.80;77.20;;;;;;5076068;28;20697;-66
2022/07/19 07:54:01;;;;;;;6.53;5.80;;;26.00;77.70;;;;;;5036212;28;20692;-66
2022/07/19 07:56:27;;;;;;;8.83;7.10;;;26.20;77.80;;;;;;5055716;28;20176;-66
2022/07/19 07:58:53;;;;;;;7.17;6.40;;;26.40;77.90;;;;;;5003452;28;20773;-66
2022/07/19 08:01:19;;;;;;;7.30;6.43;;;26.50;76.30;;;;;;5055452;28;20416;-66
2022/07/19 08:03:45;;;;;;;10.13;6.90;;;26.80;76.70;;;;;;5037050;28;20432;-66
2022/07/19 08:06:10;;;;;;;8.93;8.23;;;27.00;77.30;;;;;;5055613;28;20174;-66
2022/07/19 08:08:37;;;;;;;8.30;7.33;;;27.20;77.30;;;;;;5055375;28;20170;-66
2022/07/19 08:11:04;;;;;;;8.83;8.10;;;27.40;77.20;;;;;;5055622;28;20511;-66
2022/07/19 08:13:29;;;;;;;6.07;5.67;;;27.50;73.70;;;;;;5055262;28;20501;-66
2022/07/19 08:15:56;;;;;;;8.13;7.40;;;27.70;74.10;;;;;;5036741;28;20431;-66
2022/07/19 08:18:21;;;;;;;8.73;8.23;;;27.90;72.50;;;;;;5037060;28;20184;-66
2022/07/19 08:20:47;;;;;;;9.00;6.13;;;28.20;72.90;;;;;;5052373;28;20472;-67
2022/07/19 08:23:13;;;;;;;7.37;6.63;;;28.30;70.50;;;;;;5055175;28;20178;-66
2022/07/19 08:25:40;;;;;;;6.30;5.70;;;28.60;68.30;;;;;;5054126;28;20198;-67
2022/07/19 08:28:05;;;;;;;7.60;6.90;;;28.70;69.80;;;;;;5055123;28;20416;-66
2022/07/19 08:30:31;;;;;;;7.47;6.73;;;28.90;69.30;;;;;;5055411;28;20180;-66
2022/07/19 08:32:57;;;;;;;8.33;7.60;;;29.10;66.40;;;;;;5054320;28;20288;-66
2022/07/19 08:35:23;;;;;;;8.70;8.10;;;29.30;65.90;;;;;;5054852;28;20412;-66
2022/07/19 08:37:49;;;;;;;8.80;7.00;;;29.50;59.90;;;;;;5054277;28;20174;-67
2022/07/19 08:40:15;;;;;;;8.97;8.27;;;29.60;60.80;;;;;;5055081;28;20178;-67
2022/07/19 08:42:42;;;;;;;6.70;6.10;;;29.80;58.90;;;;;;5053244;28;20515;-67
2022/07/19 08:45:10;;;;;;;9.40;8.70;;;30.00;57.20;;;;;;5054726;28;20407;-67
2022/07/19 08:47:37;;;;;;;7.90;6.80;;;30.10;54.80;;;;;;5036849;28;20481;-67
2022/07/19 08:50:08;;;;;;;15.10;8.50;;;30.30;55.30;;;;;;5054151;28;20411;-67
2022/07/19 08:52:35;;;;;;;9.77;6.43;;;30.50;56.00;;;;;;5036728;28;20408;-67
2022/07/19 08:55:02;;;;;;;5.30;5.00;;;30.60;53.50;;;;;;5049060;28;20428;-67
2022/07/19 09:00:13;;;;;;;8.07;7.33;;;31.00;56.70;;;;;;5054600;28;20405;-67
2022/07/19 09:02:38;;;;;;;7.17;6.67;;;31.10;57.40;;;;;;5054433;28;20487;-67
2022/07/19 09:05:11;;;;;;;9.03;7.73;;;31.20;59.70;;;;;;5053465;28;20984;-67
2022/07/19 09:07:38;;;;;;;9.47;8.60;;;31.30;58.40;;;;;;5054263;28;20194;-67
2022/07/19 09:10:21;;;;;;;7.00;6.37;;;31.50;57.40;;;;;;5036093;28;20443;-67
2022/07/19 09:13:01;;;;;;;5.80;5.27;;;31.50;56.00;;;;;;5019563;28;20455;-67
2022/07/19 09:15:52;;;;;;;6.33;5.73;;;31.70;52.40;;;;;;5054217;28;20435;-67
2022/07/19 09:18:20;;;;;;;6.30;5.80;;;31.80;53.20;;;;;;5053885;28;20880;-67
2022/07/19 09:20:49;;;;;;;6.00;5.40;;;31.90;52.00;;;;;;5053152;28;20810;-67
2022/07/19 09:23:15;;;;;;;5.80;5.40;;;32.00;52.00;;;;;;5051322;28;20443;-67
2022/07/19 09:25:49;;;;;;;7.77;7.20;;;32.10;47.80;;;;;;5052551;28;20497;-65
2022/07/19 09:28:16;;;;;;;5.63;5.00;;;32.20;46.30;;;;;;5053622;28;20483;-64
2022/07/19 09:30:54;;;;;;;6.57;6.17;;;32.40;45.10;;;;;;5053608;28;20858;-67
2022/07/19 09:33:29;;;;;;;5.00;4.60;;;32.40;42.60;;;;;;5036126;28;20446;-64
2022/07/19 09:35:57;;;;;;;6.17;5.77;;;32.50;42.90;;;;;;5053215;28;20766;-67
2022/07/19 09:38:34;;;;;;;4.67;4.37;;;32.70;45.00;;;;;;5036155;28;20781;-67
2022/07/19 09:41:14;;;;;;;5.00;4.70;;;32.80;44.10;;;;;;5052903;28;20419;-67
2022/07/19 09:43:51;;;;;;;3.57;3.37;;;32.90;42.30;;;;;;5053793;28;20412;-67
2022/07/19 09:46:36;;;;;;;5.13;4.80;;;33.00;40.00;;;;;;5032422;28;20771;-67
2022/07/19 09:49:18;;;;;;;6.00;5.70;;;33.10;41.80;;;;;;5053037;28;20470;-68
2022/07/19 09:51:46;;;;;;;6.30;5.90;;;33.20;40.20;;;;;;5053473;28;20408;-70
2022/07/19 09:54:14;;;;;;;5.40;5.10;;;33.30;39.20;;;;;;5053366;28;20462;-67
2022/07/19 09:56:41;;;;;;;7.30;7.00;;;33.30;37.40;;;;;;5035204;28;20451;-67
2022/07/19 09:59:07;;;;;;;6.13;5.83;;;33.40;39.20;;;;;;5052719;28;20831;-67
2022/07/19 10:01:34;;;;;;;5.77;5.40;;;33.40;36.80;;;;;;5053103;28;20412;-65
2022/07/19 10:04:07;;;;;;;8.00;7.50;;;33.40;38.50;;;;;;5052649;28;20420;-65
2022/07/19 10:06:35;;;;;;;5.50;5.20;;;33.60;39.20;;;;;;5053390;28;20800;-65
2022/07/19 10:09:05;;;;;;;6.17;5.67;;;33.70;39.10;;;;;;5052378;28;20479;-65
2022/07/19 10:11:35;;;;;;;7.50;5.20;;;33.70;37.40;;;;;;5053234;28;20499;-65
2022/07/19 10:14:02;;;;;;;5.67;5.17;;;33.80;40.00;;;;;;5052718;28;20580;-66
2022/07/19 10:17:02;;;;;;;6.03;5.73;;;34.00;41.40;;;;;;5051675;28;20931;-66
2022/07/19 10:19:28;;;;;;;5.53;5.23;;;34.10;39.40;;;;;;5033035;28;20516;-66
2022/07/19 10:21:54;;;;;;;5.43;5.13;;;34.20;38.70;;;;;;5032090;28;20500;-66
2022/07/19 10:24:43;;;;;;;7.80;7.30;;;34.10;37.70;;;;;;5015318;28;20204;-66
2022/07/19 10:27:09;;;;;;;6.23;5.83;;;34.30;38.10;;;;;;5032348;28;20757;-66
2022/07/19 10:29:35;;;;;;;6.40;6.03;;;34.30;35.30;;;;;;5032591;28;20783;-66
2022/07/19 10:32:12;;;;;;;9.40;8.87;;;34.30;34.80;;;;;;5032279;28;20422;-66
2022/07/19 10:34:38;;;;;;;6.10;5.70;;;34.30;33.90;;;;;;5032841;28;20289;-66
2022/07/19 10:37:04;;;;;;;5.50;5.10;;;34.30;36.20;;;;;;5032251;28;20413;-67
2022/07/19 10:39:35;;;;;;;5.07;4.77;;;34.40;35.60;;;;;;5031644;28;20845;-67
2022/07/19 10:42:20;;;;;;;6.43;6.13;;;34.50;34.60;;;;;;5032178;28;20417;-66
2022/07/19 10:44:54;;;;;;;6.30;5.90;;;34.60;34.90;;;;;;5035993;28;20429;-67
2022/07/19 10:47:36;;;;;;;5.97;5.67;;;34.50;35.10;;;;;;5052480;28;20447;-67
2022/07/19 10:50:09;;;;;;;6.77;6.37;;;34.60;35.10;;;;;;5052209;28;20473;-66
2022/07/19 10:52:39;;;;;;;6.37;6.03;;;34.60;34.50;;;;;;5052751;28;20432;-66
2022/07/19 10:55:17;;;;;;;7.10;6.80;;;34.70;36.90;;;;;;5051905;28;20835;-67
2022/07/19 10:57:48;;;;;;;5.43;5.17;;;34.80;36.70;;;;;;5052453;28;20495;-67
2022/07/19 11:00:18;;;;;;;9.00;8.60;;;34.90;34.60;;;;;;5052462;28;20444;-66
2022/07/19 11:02:44;;;;;;;7.30;6.80;;;35.00;34.30;;;;;;5052307;28;20455;-66
2022/07/19 11:05:30;;;;;;;8.53;8.00;;;35.00;34.70;;;;;;5051531;28;20745;-67
2022/07/19 11:07:57;;;;;;;6.10;5.80;;;35.10;37.80;;;;;;5051745;28;20427;-67
2022/07/19 11:10:28;;;;;;;8.30;7.70;;;35.30;38.40;;;;;;5052431;28;20481;-66
2022/07/19 11:12:55;;;;;;;9.07;8.57;;;35.40;38.70;;;;;;5049710;28;20463;-66
2022/07/19 11:15:22;;;;;;;7.60;7.20;;;35.50;38.50;;;;;;5052208;28;20420;-66
2022/07/19 11:17:52;;;;;;;5.73;5.33;;;35.70;38.10;;;;;;5052256;28;20415;-67
2022/07/19 11:20:19;;;;;;;5.30;5.00;;;35.70;36.90;;;;;;5051508;28;20420;-66
2022/07/19 11:22:47;;;;;;;7.57;7.17;;;35.80;34.50;;;;;;5052039;28;20518;-66
2022/07/19 11:25:15;;;;;;;6.83;6.33;;;35.70;33.30;;;;;;5051631;28;20427;-66
2022/07/19 11:27:42;;;;;;;5.97;5.77;;;35.70;33.10;;;;;;5051928;28;20511;-66
2022/07/19 11:30:10;;;;;;;5.93;5.60;;;35.70;34.70;;;;;;5051370;28;20511;-66
2022/07/19 11:32:35;;;;;;;5.67;5.37;;;35.90;34.00;;;;;;4984425;28;20416;-66
2022/07/19 11:35:22;;;;;;;7.00;6.40;;;36.00;35.10;;;;;;4990723;28;20569;-67
2022/07/19 11:37:51;;;;;;;6.07;5.77;;;36.00;35.40;;;;;;4990552;28;20506;-67
2022/07/19 11:40:17;;;;;;;6.13;5.73;;;36.10;37.70;;;;;;4990604;28;20415;-66
2022/07/19 11:42:45;;;;;;;6.50;6.10;;;36.30;36.20;;;;;;4989284;28;20841;-67
2022/07/19 11:45:17;;;;;;;7.00;6.60;;;36.30;33.50;;;;;;4989972;28;20891;-67
2022/07/19 11:47:44;;;;;;;6.03;5.70;;;36.30;34.00;;;;;;4974351;28;20430;-67
2022/07/19 11:50:11;;;;;;;6.23;5.80;;;36.20;32.40;;;;;;4989754;28;20915;-67
2022/07/19 11:52:48;;;;;;;6.27;5.97;;;36.20;33.40;;;;;;4994015;28;20422;-67
2022/07/19 11:55:17;;;;;;;6.10;5.70;;;36.20;33.60;;;;;;4993553;28;20403;-67
2022/07/19 11:57:43;;;;;;;9.20;5.80;;;36.30;33.30;;;;;;4994001;28;20454;-67
2022/07/19 12:00:10;;;;;;;5.73;5.43;;;36.30;33.00;;;;;;4993364;28;20415;-67
2022/07/19 12:02:56;;;;;;;6.00;5.50;;;36.30;33.90;;;;;;4993957;28;20183;-67
2022/07/19 12:05:22;;;;;;;6.50;6.00;;;36.30;32.10;;;;;;4993852;28;20778;-67
2022/07/19 12:07:49;;;;;;;6.10;5.57;;;36.30;33.90;;;;;;4992522;28;20828;-67
2022/07/19 12:10:36;;;;;;;6.17;5.67;;;36.40;30.40;;;;;;4993218;28;20423;-67
2022/07/19 12:13:04;;;;;;;5.70;5.40;;;36.10;30.80;;;;;;5038908;28;20516;-67
2022/07/19 12:15:47;;;;;;;5.50;5.10;;;36.10;30.70;;;;;;5055073;28;20443;-67
2022/07/19 12:18:14;;;;;;;5.10;4.90;;;36.00;30.80;;;;;;5054703;28;20408;-67
2022/07/19 12:20:40;;;;;;;5.87;5.40;;;35.90;30.00;;;;;;5054904;28;21030;-67
2022/07/19 12:23:14;;;;;;;5.97;5.67;;;35.90;31.00;;;;;;5054637;28;20611;-67
2022/07/19 12:25:40;;;;;;;12.97;11.97;;;36.00;31.80;;;;;;5037409;28;20791;-67
2022/07/19 12:28:06;;;;;;;6.97;6.63;;;36.00;33.60;;;;;;5054248;28;20408;-67
2022/07/19 12:30:31;;;;;;;7.50;6.80;;;36.00;29.90;;;;;;5055088;28;20248;-67
2022/07/19 12:33:11;;;;;;;9.07;8.53;;;35.90;30.00;;;;;;5049779;28;20209;-69
2022/07/19 12:35:45;;;;;;;6.57;6.10;;;36.00;29.90;;;;;;5034559;28;20178;-67
2022/07/19 12:38:11;;;;;;;8.00;7.50;;;36.00;30.50;;;;;;5044071;28;20517;-68
2022/07/19 12:40:39;;;;;;;6.63;6.33;;;36.00;30.50;;;;;;5052643;28;20428;-71
2022/07/19 12:43:06;;;;;;;5.90;5.53;;;36.00;31.30;;;;;;5050737;28;20800;-68
2022/07/19 12:45:43;;;;;;;5.70;5.20;;;36.00;31.30;;;;;;5054070;28;20453;-68
2022/07/19 12:48:11;;;;;;;5.97;5.67;;;35.90;28.60;;;;;;5051531;28;20518;-68
2022/07/19 12:50:45;;;;;;;6.47;6.07;;;35.90;30.90;;;;;;5051552;28;20482;-67
2022/07/19 12:53:13;;;;;;;7.80;7.20;;;36.00;29.00;;;;;;5051752;28;20554;-68
2022/07/19 12:55:59;;;;;;;7.73;7.17;;;35.90;30.00;;;;;;4991256;28;20496;-69